createdAt,value
2023-02-11T00:01:11.376Z,13.60
2023-02-11T00:03:39.685Z,13.10
2023-02-11T00:06:11.911Z,16.00
2023-02-11T00:08:40.221Z,12.90
2023-02-11T00:11:10.416Z,10.70
2023-02-11T00:13:38.064Z,13.80
2023-02-11T00:16:10.622Z,13.90
2023-02-11T00:18:38.756Z,11.80
2023-02-11T00:21:11.636Z,12.10
2023-02-11T00:23:39.995Z,13.70
2023-02-11T00:26:17.743Z,11.20
2023-02-11T00:28:46.894Z,10.00
2023-02-11T00:31:16.222Z,10.30
2023-02-11T00:33:44.768Z,13.50
2023-02-11T00:36:16.601Z,11.90
2023-02-11T00:38:46.116Z,11.60
2023-02-11T00:41:15.615Z,9.40
2023-02-11T00:43:43.889Z,11.60
2023-02-11T00:46:12.308Z,9.70
2023-02-11T00:48:40.679Z,12.60
2023-02-11T00:51:09.090Z,7.60
2023-02-11T00:53:36.804Z,8.80
2023-02-11T00:56:05.385Z,10.70
2023-02-11T00:58:33.483Z,9.30
2023-02-11T07:01:42.283Z,11.40
2023-02-11T07:04:10.445Z,12.80
2023-02-11T07:06:38.219Z,16.70
2023-02-11T07:09:05.959Z,14.00
2023-02-11T07:11:34.072Z,13.10
2023-02-11T07:14:08.504Z,14.70
2023-02-11T07:16:36.775Z,17.80
2023-02-11T07:19:04.733Z,15.20
2023-02-11T07:21:32.569Z,16.00
2023-02-11T07:24:00.292Z,14.60
2023-02-11T07:26:29.221Z,16.00
2023-02-11T07:28:56.996Z,12.40
2023-02-11T07:31:27.436Z,15.70
2023-02-11T07:34:00.073Z,15.20
2023-02-11T07:36:29.824Z,15.90
2023-02-11T07:38:58.406Z,14.10
2023-02-11T07:41:28.296Z,15.70
2023-02-11T07:43:56.472Z,16.00
2023-02-11T07:46:27.480Z,18.20
2023-02-11T07:48:55.788Z,12.60
2023-02-11T07:51:27.171Z,15.60
2023-02-11T07:53:57.664Z,18.10
2023-02-11T07:56:25.708Z,13.60
2023-02-11T07:58:54.534Z,16.70
2023-02-11T08:01:28.472Z,17.40
2023-02-11T08:03:58.465Z,12.70
2023-02-11T08:06:29.202Z,16.40
2023-02-11T08:08:57.203Z,16.50
2023-02-11T08:11:27.737Z,16.80
2023-02-11T08:13:56.698Z,12.50
2023-02-11T08:16:27.212Z,16.60
2023-02-11T08:19:00.400Z,16.10
2023-02-11T08:21:28.688Z,17.30
2023-02-11T08:23:56.752Z,19.10
2023-02-11T08:26:29.030Z,17.70
2023-02-11T08:28:57.936Z,15.40
2023-02-11T08:31:33.385Z,15.80
2023-02-11T08:34:02.608Z,18.30
2023-02-11T08:36:34.268Z,16.10
2023-02-11T08:41:49.383Z,19.00
2023-02-11T08:44:18.783Z,20.30
2023-02-11T08:46:47.446Z,21.60
2023-02-11T08:49:15.697Z,16.10
2023-02-11T08:51:44.131Z,16.10
2023-02-11T08:54:12.546Z,20.90
2023-02-11T08:56:40.567Z,18.10
2023-02-11T08:59:11.533Z,18.40
2023-02-11T09:01:39.565Z,21.30
2023-02-11T09:04:08.373Z,19.70
2023-02-11T09:06:36.169Z,20.00
2023-02-11T09:09:04.800Z,16.80
2023-02-11T09:11:35.241Z,17.80
2023-02-11T09:14:04.505Z,18.50
2023-02-11T09:16:35.764Z,20.20
2023-02-11T09:19:05.489Z,19.60
2023-02-11T09:21:33.571Z,17.30
2023-02-11T09:24:01.860Z,18.20
2023-02-11T09:26:32.480Z,16.50
2023-02-11T09:29:01.268Z,21.90
2023-02-11T09:31:31.391Z,17.50
2023-02-11T09:34:02.550Z,16.30
2023-02-11T09:36:34.693Z,19.50
2023-02-11T09:39:02.473Z,18.80
2023-02-11T09:42:01.276Z,16.60
2023-02-11T09:44:32.302Z,15.80
2023-02-11T09:47:06.311Z,15.70
2023-02-11T09:49:40.988Z,16.60
2023-02-11T09:52:15.780Z,17.40
2023-02-11T09:54:55.450Z,18.30
2023-02-11T09:57:36.309Z,18.70
2023-02-11T10:00:19.389Z,17.90
2023-02-11T10:03:05.576Z,14.40
2023-02-11T10:05:53.780Z,13.30
2023-02-11T10:08:40.448Z,18.70
2023-02-11T10:11:32.102Z,19.10
2023-02-11T10:14:07.494Z,15.20
2023-02-11T10:16:53.537Z,16.80
2023-02-11T10:19:43.157Z,13.50
2023-02-11T10:22:20.038Z,19.10
2023-02-11T10:24:58.576Z,17.20
2023-02-11T10:27:35.537Z,20.60
2023-02-11T10:30:28.731Z,18.40
2023-02-11T10:33:20.851Z,17.10
2023-02-11T10:35:49.080Z,15.60
2023-02-11T10:38:16.908Z,17.70
2023-02-11T10:40:45.006Z,17.00
2023-02-11T10:43:17.918Z,16.90
2023-02-11T10:45:51.420Z,15.40
2023-02-11T10:48:42.879Z,18.20
2023-02-11T10:51:18.694Z,17.80
2023-02-11T10:53:48.607Z,15.90
2023-02-11T10:56:30.468Z,14.90
2023-02-11T10:59:01.167Z,14.00
2023-02-11T11:01:53.897Z,16.30
2023-02-11T11:04:31.250Z,19.00
2023-02-11T11:07:25.609Z,17.70
2023-02-11T11:10:28.126Z,17.20
2023-02-11T11:12:56.002Z,17.30
2023-02-11T11:15:29.878Z,21.30
2023-02-11T11:18:21.401Z,20.70
2023-02-11T11:21:13.737Z,19.20
2023-02-11T11:23:49.422Z,20.70
2023-02-11T11:26:17.971Z,23.00
2023-02-11T11:28:54.671Z,18.70
2023-02-11T11:31:27.123Z,17.00
2023-02-11T11:33:58.180Z,19.50
2023-02-11T11:36:35.474Z,21.20
2023-02-11T11:39:18.683Z,23.20
2023-02-11T11:41:56.416Z,19.00
2023-02-11T11:44:32.948Z,21.00
2023-02-11T11:47:13.612Z,20.70
2023-02-11T11:49:51.219Z,25.30
2023-02-11T11:52:27.727Z,21.20
2023-02-11T11:55:11.511Z,19.00
2023-02-11T11:57:40.732Z,19.50
2023-02-11T12:00:53.682Z,23.60
2023-02-11T12:03:34.312Z,19.30
2023-02-11T12:06:26.858Z,20.40
2023-02-11T12:09:21.823Z,24.00
2023-02-11T12:12:17.257Z,19.20
2023-02-11T12:15:11.951Z,25.80
2023-02-11T12:18:06.097Z,24.20
2023-02-11T12:20:36.771Z,22.90
2023-02-11T12:23:38.748Z,20.80
2023-02-11T12:26:20.531Z,14.80
2023-02-11T12:29:16.040Z,17.80
2023-02-11T12:31:55.155Z,17.90
2023-02-11T12:34:45.341Z,18.20
2023-02-11T12:37:32.767Z,20.30
2023-02-11T12:40:17.181Z,19.00
2023-02-11T12:43:16.595Z,20.00
2023-02-11T12:45:47.141Z,18.30
2023-02-11T12:48:45.788Z,21.50
2023-02-11T12:51:32.563Z,22.90
2023-02-11T12:54:33.349Z,17.60
2023-02-11T12:57:17.546Z,23.00
2023-02-11T13:02:30.650Z,16.40
2023-02-11T13:05:04.603Z,20.70
2023-02-11T13:07:41.805Z,18.70
2023-02-11T13:10:21.843Z,23.10
2023-02-11T13:13:10.425Z,21.00
2023-02-11T13:15:39.264Z,18.60
2023-02-11T13:18:22.506Z,20.70
2023-02-11T13:21:10.448Z,19.50
2023-02-11T13:24:07.907Z,17.50
2023-02-11T13:26:47.596Z,20.20
2023-02-11T13:29:24.629Z,19.20
2023-02-11T13:32:12.154Z,23.00
2023-02-11T13:34:43.001Z,17.90
2023-02-11T13:37:36.326Z,22.90
2023-02-11T13:40:19.088Z,18.30
2023-02-11T13:42:53.399Z,16.60
2023-02-11T13:45:31.582Z,23.10
2023-02-11T13:48:02.220Z,20.40
2023-02-11T13:50:35.511Z,22.30
2023-02-11T13:53:07.276Z,20.00
2023-02-11T13:55:36.019Z,25.70
2023-02-11T13:58:06.709Z,18.30
2023-02-11T14:00:34.546Z,24.60
2023-02-11T14:03:45.818Z,24.00
2023-02-11T14:06:36.013Z,18.00
2023-02-11T14:09:09.690Z,23.60
2023-02-11T14:11:43.015Z,23.30
2023-02-11T14:14:33.944Z,18.00
2023-02-11T14:17:07.782Z,19.50
2023-02-11T14:19:41.159Z,19.10
2023-02-11T14:22:19.851Z,25.10
2023-02-11T14:25:05.640Z,19.00
2023-02-11T14:27:39.323Z,17.90
2023-02-11T14:30:45.794Z,19.20
2023-02-11T14:33:16.260Z,19.60
2023-02-11T14:35:58.681Z,21.20
2023-02-11T14:38:26.297Z,18.70
2023-02-11T14:41:14.959Z,17.90
2023-02-11T14:43:47.989Z,18.40
2023-02-11T14:46:18.869Z,21.20
2023-02-11T14:48:50.613Z,18.50
2023-02-11T14:53:55.665Z,18.40
2023-02-11T14:56:26.726Z,17.20
2023-02-11T14:58:55.388Z,19.60
2023-02-11T15:01:35.447Z,21.40
2023-02-11T15:04:06.412Z,18.10
2023-02-11T15:06:40.124Z,16.80
2023-02-11T15:09:17.305Z,18.80
2023-02-11T15:11:48.633Z,19.80
2023-02-11T15:14:36.586Z,19.10
2023-02-11T15:17:08.235Z,20.00
2023-02-11T15:19:41.259Z,22.50
2023-02-11T15:22:18.832Z,22.40
2023-02-11T15:24:59.218Z,16.80
2023-02-11T15:27:27.396Z,18.10
2023-02-11T15:29:55.212Z,18.40
2023-02-11T15:32:26.022Z,20.50
2023-02-11T15:34:54.520Z,19.60
2023-02-11T15:37:26.106Z,18.00
2023-02-11T15:42:40.841Z,17.10
2023-02-11T15:45:15.082Z,18.90
2023-02-11T15:47:50.940Z,16.80
2023-02-11T15:50:26.040Z,17.20
2023-02-11T15:52:55.674Z,15.00
2023-02-11T15:55:27.260Z,11.80
2023-02-11T15:57:58.531Z,15.40
2023-02-11T16:00:46.401Z,16.00
2023-02-11T16:03:33.184Z,16.00
2023-02-11T16:06:22.107Z,16.10
2023-02-11T16:09:04.839Z,18.50
2023-02-11T16:11:58.249Z,15.30
2023-02-11T16:14:39.419Z,18.70
2023-02-11T16:17:26.237Z,19.90
2023-02-11T16:19:54.892Z,14.10
2023-02-11T16:22:30.543Z,14.90
2023-02-11T16:25:00.033Z,12.80
2023-02-11T16:27:41.137Z,16.90
2023-02-11T16:30:29.217Z,17.90
2023-02-11T16:32:56.961Z,15.20
2023-02-11T16:35:24.737Z,13.00
2023-02-11T16:37:52.528Z,15.20
2023-02-11T16:40:20.351Z,12.30
2023-02-11T16:42:47.997Z,15.50
2023-02-11T16:45:15.856Z,15.30
2023-02-11T16:47:43.639Z,15.10
2023-02-11T16:50:20.847Z,16.60
2023-02-11T16:52:49.010Z,13.00
2023-02-11T16:55:17.278Z,14.90
2023-02-11T16:57:45.078Z,16.10
2023-02-11T17:00:16.664Z,16.40
2023-02-11T17:02:44.459Z,16.50
2023-02-11T17:05:24.915Z,15.30
2023-02-11T17:07:52.784Z,12.90
2023-02-11T17:10:23.190Z,14.80
2023-02-11T17:12:51.364Z,15.40
2023-02-11T17:15:19.142Z,17.50
2023-02-11T17:17:46.832Z,14.30
2023-02-11T17:20:15.377Z,14.30
2023-02-11T17:22:43.093Z,15.10
2023-02-11T17:25:11.302Z,14.40
2023-02-11T17:27:39.066Z,13.70
2023-02-11T17:30:07.616Z,12.50
2023-02-11T17:32:36.552Z,13.80
2023-02-11T17:35:06.427Z,15.70
2023-02-11T17:37:34.098Z,16.90
2023-02-11T17:40:01.846Z,11.60
2023-02-11T17:42:31.313Z,16.10
2023-02-11T17:44:59.065Z,13.40
2023-02-11T17:47:26.757Z,14.90
2023-02-11T17:49:54.465Z,15.80
2023-02-11T17:52:24.169Z,14.20
2023-02-11T17:54:51.964Z,16.00
2023-02-11T17:57:19.716Z,14.20
2023-02-11T17:59:47.573Z,19.80
2023-02-11T18:02:15.351Z,16.90
2023-02-11T18:04:43.144Z,13.90
2023-02-11T18:07:10.909Z,15.50
2023-02-11T18:09:40.427Z,16.00
2023-02-11T18:12:09.067Z,14.40
2023-02-11T18:14:40.441Z,16.40
2023-02-11T18:17:08.976Z,15.40
2023-02-11T18:19:37.722Z,14.30
2023-02-11T18:22:05.508Z,16.40
2023-02-11T18:24:33.241Z,15.80
2023-02-11T18:27:01.000Z,15.50
2023-02-11T18:29:28.810Z,13.90
2023-02-11T18:31:57.420Z,14.20
2023-02-11T18:34:25.716Z,17.60
2023-02-11T18:36:53.578Z,15.50
2023-02-11T18:39:24.271Z,14.30
2023-02-11T18:41:56.774Z,15.30
2023-02-11T18:44:25.565Z,17.50
2023-02-11T18:46:53.716Z,18.70
2023-02-11T18:49:21.430Z,13.90
2023-02-11T18:51:49.154Z,16.40
2023-02-11T18:54:16.973Z,15.80
2023-02-11T18:56:45.144Z,14.20
2023-02-11T18:59:13.077Z,15.00
2023-02-11T19:01:43.391Z,13.60
2023-02-11T19:04:11.443Z,15.90
2023-02-11T19:06:39.627Z,17.50
2023-02-11T19:09:17.235Z,14.10
2023-02-11T19:11:52.351Z,11.90
2023-02-11T19:14:24.575Z,12.10
2023-02-11T19:16:55.605Z,14.70
2023-02-11T19:19:25.473Z,15.20
2023-02-11T19:21:53.507Z,11.90
2023-02-11T19:24:23.405Z,13.10
2023-02-11T19:26:53.348Z,12.80
2023-02-11T19:29:21.310Z,14.80
2023-02-11T19:31:49.994Z,13.40
2023-02-11T19:34:20.048Z,15.30
2023-02-11T19:36:49.538Z,10.80
2023-02-11T19:39:18.462Z,14.00
2023-02-11T19:41:46.305Z,14.70
2023-02-11T19:44:14.413Z,13.20
2023-02-11T19:46:42.188Z,13.30
2023-02-11T19:49:14.801Z,13.00
2023-02-11T19:51:42.453Z,11.20
2023-02-11T19:54:10.290Z,11.90
2023-02-11T19:56:38.024Z,12.50
2023-02-11T19:59:08.876Z,12.30
2023-02-11T20:01:37.098Z,11.10
2023-02-11T20:04:04.933Z,13.40
2023-02-11T20:06:34.292Z,12.40
2023-02-11T20:09:06.586Z,12.40
2023-02-11T20:11:35.548Z,13.50
2023-02-11T20:14:04.829Z,12.50
2023-02-11T20:16:47.539Z,10.00
2023-02-11T20:19:18.961Z,11.10
2023-02-11T20:21:49.054Z,10.40
2023-02-11T20:24:18.277Z,9.80
2023-02-11T20:26:48.595Z,10.80
2023-02-11T20:29:17.870Z,11.80
2023-02-11T20:31:45.909Z,8.90
2023-02-11T20:34:14.414Z,7.80
2023-02-11T20:36:42.241Z,11.20
2023-02-11T20:39:11.486Z,8.10
2023-02-11T20:41:41.845Z,10.40
2023-02-11T20:44:10.748Z,8.80
2023-02-11T20:46:41.953Z,9.10
2023-02-11T20:49:15.694Z,10.30
2023-02-11T20:51:46.006Z,9.80
2023-02-11T20:54:17.828Z,8.00
2023-02-11T20:56:48.502Z,7.50
2023-02-11T20:59:16.908Z,8.60
2023-02-11T21:01:48.358Z,9.70
2023-02-11T21:04:22.594Z,8.20
2023-02-11T21:06:53.738Z,9.20
2023-02-11T21:09:24.674Z,8.60
2023-02-11T21:11:54.301Z,7.60
2023-02-11T21:14:24.071Z,8.00
2023-02-11T21:16:52.474Z,7.20
2023-02-11T21:19:20.384Z,8.90
2023-02-11T21:21:48.421Z,8.30
2023-02-11T21:24:16.234Z,6.70
2023-02-11T21:26:44.132Z,7.90
2023-02-11T21:29:12.058Z,6.30
2023-02-11T21:31:40.160Z,8.70
2023-02-11T21:34:08.110Z,9.20
2023-02-11T21:36:35.906Z,9.70
2023-02-11T21:39:04.277Z,8.10
2023-02-11T21:41:32.070Z,7.70
2023-02-11T21:43:59.791Z,7.70
2023-02-11T21:46:27.890Z,9.20
2023-02-11T21:48:57.493Z,8.10
2023-02-11T21:51:26.337Z,8.20
2023-02-11T21:53:55.589Z,7.10
2023-02-11T21:56:24.341Z,7.80
2023-02-11T21:58:54.095Z,7.00
2023-02-11T22:01:31.145Z,8.80
2023-02-11T22:03:59.869Z,7.10
2023-02-11T22:06:31.151Z,5.00
2023-02-11T22:09:04.211Z,3.80
2023-02-11T22:11:32.083Z,3.60
2023-02-11T22:13:59.853Z,2.80
2023-02-11T22:16:28.748Z,2.50
2023-02-11T22:18:58.740Z,1.90
2023-02-11T22:21:27.967Z,2.40
2023-02-11T22:23:56.371Z,3.00
2023-02-11T22:26:26.769Z,2.10
2023-02-11T22:28:55.393Z,2.90
2023-02-11T22:31:26.799Z,2.10
2023-02-11T22:33:54.676Z,1.70
2023-02-11T22:36:33.551Z,2.60
2023-02-11T22:39:04.537Z,2.30
2023-02-11T22:44:01.380Z,2.80
2023-02-11T22:46:29.106Z,2.10
2023-02-11T22:48:56.997Z,2.40
2023-02-11T22:51:28.101Z,1.60
2023-02-11T22:54:01.047Z,1.80
2023-02-11T22:56:30.989Z,2.00
2023-02-11T22:59:05.585Z,1.70
2023-02-11T23:01:34.220Z,2.20
2023-02-11T23:04:04.471Z,1.70
2023-02-11T23:06:32.237Z,1.30
2023-02-11T23:09:00.122Z,1.50
2023-02-11T23:11:30.060Z,2.30
2023-02-11T23:13:58.555Z,1.90
2023-02-11T23:16:30.899Z,2.00
2023-02-11T23:19:00.997Z,3.10
2023-02-11T23:21:31.885Z,5.70
2023-02-11T23:24:03.181Z,4.10
2023-02-11T23:26:31.547Z,2.30
2023-02-11T23:28:59.872Z,1.80
2023-02-11T23:31:35.102Z,1.90
2023-02-11T23:34:04.067Z,1.60
2023-02-11T23:36:32.397Z,1.00
2023-02-11T23:39:00.246Z,1.90
2023-02-11T23:41:28.142Z,2.30
2023-02-11T23:43:57.955Z,1.80
2023-02-11T23:46:27.030Z,2.00
2023-02-11T23:48:55.355Z,2.00
2023-02-11T23:51:24.007Z,1.50
2023-02-11T23:53:53.039Z,1.50
2023-02-11T23:56:24.057Z,1.80
2023-02-11T23:58:54.772Z,2.30
